Carmen, Idaho
Current Conditions -  °F | °C
As of 7:55 PM on Monday 20 Oct 2014 (Local Time) from KLLJ Reporting Station
Scattered Clouds Scattered Clouds  
Wind Chill: 62°   Ceiling: Unl
Heat Index: 62°   Visibility: 10mi
Dew Point: 32°   Wind: 9mph
Humidity: 32%   Direction: 160°SSE
Pressure: 29.85"   Gusts: NA
Location:  45.24°N, 113.89°W
Report Text: KLLJ 210155Z AUTO 16008KT 10SM SCT120 17/00 A2985 RMK AO2 SLP080 T01670000
Loading
Personal Weather Stations






























Interactive Weather Map
Tropical Storm Tracking
New forecast layout! Learn more

10-Day Weather Forecast

Advertisements
Track Severe Weather on mobile